Tümü
Dickson Muni Airport (Dickson, TN) M02 Hava Durumu
|
Dickson, TN (M02)
Açık
Hafif rüzgârlı |
|
24 °C |
There is no TAF data available at M02 or any nearby airports.
Yakın zamandaki M02 METAR geçmişi
| Date | Time (CDT) | Flight Rules | Wind Dir. | Speed | Type | Height AGL (ft) | Visibility | Temp (°C) | Temp (°F) | Dew Point (°C) | Dew Point (°F) | Rel. Humid. | Pressure | Density Altitude | Remarks |
|---|---|---|---|---|---|---|---|---|---|---|---|---|---|---|---|
| 02-Eyl | 00:15 | VFR | Calm | 10 miles | 24° | 75° | 21° | 69° | 83% | 30.06 in Hg | 1.832 ft | ||||
| 01-Eyl | 23:35 | VFR | Calm | 10 miles | 24° | 75° | 22° | 71° | 89% | 30.06 in Hg | 1.832 ft | ||||
| 01-Eyl | 23:15 | VFR | Calm | 10 miles | 24° | 75° | 22° | 71° | 89% | 30.06 in Hg | 1.832 ft | ||||
| 01-Eyl | 22:55 | VFR | Calm | 10 miles | 24° | 75° | 22° | 71° | 89% | 30.06 in Hg | 1.832 ft | ||||
| 01-Eyl | 22:15 | VFR | Calm | 10 miles | 24° | 75° | 22° | 71° | 89% | 30.07 in Hg | 1.822 ft | ||||
| 01-Eyl | 21:55 | VFR | Calm | 10 miles | 25° | 77° | 22° | 71° | 83% | 30.07 in Hg | 1.942 ft | ||||
| 01-Eyl | 21:35 | VFR | Calm | 10 miles | 25° | 77° | 22° | 71° | 83% | 30.07 in Hg | 1.942 ft | ||||
| 01-Eyl | 21:15 | VFR | Calm | 10 miles | 25° | 77° | 22° | 71° | 83% | 30.07 in Hg | 1.942 ft | ||||
| 01-Eyl | 20:55 | VFR | Calm | 10 miles | 25° | 77° | 22° | 71° | 83% | 30.07 in Hg | 1.942 ft | ||||
| 01-Eyl | 20:35 | VFR | Calm | 10 miles | 26° | 78° | 23° | 73° | 84% | 30.06 in Hg | 2.072 ft | ||||
| 01-Eyl | 20:15 | VFR | Calm | 10 miles | 26° | 78° | 23° | 73° | 84% | 30.06 in Hg | 2.072 ft | ||||
| 01-Eyl | 19:55 | VFR | Calm | 10 miles | 27° | 80° | 22° | 71° | 74% | 30.05 in Hg | 2.202 ft | ||||
| 01-Eyl | 19:15 | VFR | Calm | 10 miles | 29° | 84° | 22° | 71° | 66% | 30.05 in Hg | 2.442 ft | ||||
| 01-Eyl | 18:55 | VFR | Calm | 10 miles | 30° | 86° | 21° | 69° | 59% | 30.05 in Hg | 2.562 ft | ||||
| 01-Eyl | 18:15 | VFR | Calm | 10 miles | 33° | 91° | 20° | 68° | 46% | 30.06 in Hg | 2.912 ft | ||||
| 01-Eyl | 17:55 | VFR | 220° | 3 kt | 10 miles | 34° | 93° | 19° | 66° | 41% | 30.06 in Hg | 3.032 ft | |||
| 01-Eyl | 17:35 | VFR | 210° | 4 kt | 10 miles | 34° | 93° | 18° | 64° | 39% | 30.06 in Hg | 3.032 ft | |||
| 01-Eyl | 17:15 | VFR | Variable | 3 kt | 10 miles | 34° | 93° | 20° | 68° | 44% | 30.06 in Hg | 3.032 ft | |||
| 01-Eyl | 16:55 | VFR | 200° | 4 kt | 10 miles | 34° | 93° | 20° | 68° | 44% | 30.05 in Hg | 3.042 ft | |||
| 01-Eyl | 16:15 | VFR | Calm | 10 miles | 34° | 93° | 19° | 66° | 41% | 30.06 in Hg | 3.032 ft | ||||
| 01-Eyl | 15:55 | VFR | Calm | 10 miles | 34° | 93° | 20° | 68° | 44% | 30.06 in Hg | 3.032 ft | ||||
| 01-Eyl | 15:35 | VFR | Calm | 10 miles | 34° | 93° | 20° | 68° | 44% | 30.07 in Hg | 3.022 ft | ||||
| 01-Eyl | 15:10 | VFR | Calm | 10 miles | 35° | 95° | 20° | 68° | 42% | 30.07 in Hg | 3.142 ft | ||||
| 01-Eyl | 14:50 | VFR | Variable | 4 kt | 10 miles | 34° | 93° | 20° | 68° | 44% | 30.07 in Hg | 3.022 ft |
Giriş
| Tarayıcınız desteklenmiyor. tarayıcınızı yükseltin |
